createdAt,value
2019-05-07T00:00:08.889Z,1009.46
2019-05-07T00:05:08.621Z,1009.51
2019-05-07T00:10:07.962Z,1009.54
2019-05-07T00:15:07.699Z,1009.49
2019-05-07T00:20:07.071Z,1009.43
2019-05-07T00:25:05.754Z,1009.43
2019-05-07T00:30:05.838Z,1009.45
2019-05-07T00:35:05.671Z,1009.35
2019-05-07T00:40:05.689Z,1009.34
2019-05-07T00:45:16.874Z,1009.36
2019-05-07T00:50:04.727Z,1009.28
2019-05-07T00:55:03.648Z,1009.34
2019-05-07T01:00:03.646Z,1009.36
2019-05-07T01:05:03.205Z,1009.33
2019-05-07T01:10:03.045Z,1009.30
2019-05-07T01:15:03.886Z,1009.33
2019-05-07T01:20:03.831Z,1009.33
2019-05-07T01:25:03.263Z,1009.33
2019-05-07T01:30:02.481Z,1009.33
2019-05-07T01:35:02.505Z,1009.39
2019-05-07T01:40:03.088Z,1009.28
2019-05-07T01:45:02.497Z,1009.41
2019-05-07T01:50:02.999Z,1009.24
2019-05-07T01:55:03.176Z,1009.27
2019-05-07T02:00:02.606Z,1009.32
2019-05-07T02:05:02.995Z,1009.37
2019-05-07T02:09:59.838Z,1009.31
2019-05-07T02:14:59.073Z,1009.36
2019-05-07T02:19:58.716Z,1009.39
2019-05-07T02:29:57.824Z,1009.34
2019-05-07T02:34:57.878Z,1009.27
2019-05-07T02:39:56.864Z,1009.32
2019-05-07T02:44:56.816Z,1009.30
2019-05-07T02:49:57.812Z,1009.32
2019-05-07T02:54:56.956Z,1009.30
2019-05-07T02:59:56.778Z,1009.29
2019-05-07T03:04:57.706Z,1009.34
2019-05-07T03:09:57.717Z,1009.31
2019-05-07T03:14:57.751Z,1009.34
2019-05-07T03:19:57.427Z,1009.27
2019-05-07T03:24:56.709Z,1009.30
2019-05-07T03:29:55.839Z,1009.30
2019-05-07T03:34:57.777Z,1009.33
2019-05-07T03:39:54.014Z,1009.26
2019-05-07T03:44:54.218Z,1009.21
2019-05-07T03:49:53.578Z,1009.24
2019-05-07T03:54:54.117Z,1009.21
2019-05-07T03:59:53.502Z,1009.24
2019-05-07T04:04:53.083Z,1009.23
2019-05-07T04:09:53.587Z,1009.18
2019-05-07T04:14:53.589Z,1009.21
2019-05-07T04:19:53.298Z,1009.25
2019-05-07T04:24:53.210Z,1009.23
2019-05-07T04:29:53.252Z,1009.26
2019-05-07T04:34:52.975Z,1009.21
2019-05-07T04:39:49.872Z,1009.21
2019-05-07T04:44:49.270Z,1009.19
2019-05-07T04:49:48.227Z,1009.17
2019-05-07T04:54:48.782Z,1009.22
2019-05-07T04:59:49.007Z,1009.20
2019-05-07T05:04:48.861Z,1009.21
2019-05-07T05:09:47.887Z,1009.13
2019-05-07T05:14:47.019Z,1009.14
2019-05-07T05:19:48.718Z,1009.07
2019-05-07T05:24:48.140Z,1009.05
2019-05-07T05:29:48.198Z,1009.13
2019-05-07T05:34:48.131Z,1009.16
2019-05-07T05:40:02.514Z,1009.14
2019-05-07T05:44:47.870Z,1009.18
2019-05-07T05:49:48.242Z,1009.17
2019-05-07T05:54:47.855Z,1009.13
2019-05-07T05:59:51.734Z,1009.16
2019-05-07T06:04:46.780Z,1009.13
2019-05-07T06:09:47.084Z,1009.21
2019-05-07T06:14:45.808Z,1009.14
2019-05-07T06:19:45.756Z,1009.15
2019-05-07T06:24:45.977Z,1009.14
2019-05-07T06:29:46.044Z,1009.15
2019-05-07T06:34:45.909Z,1009.16
2019-05-07T06:39:47.074Z,1009.20
2019-05-07T06:44:45.800Z,1009.21
2019-05-07T06:49:44.975Z,1009.11
2019-05-07T06:54:44.165Z,1009.04
2019-05-07T06:59:43.985Z,1009.21
2019-05-07T07:04:43.729Z,1009.14
2019-05-07T07:09:43.255Z,1009.20
2019-05-07T07:14:43.759Z,1009.10
2019-05-07T07:19:45.257Z,1009.14
2019-05-07T07:24:43.866Z,1008.96
2019-05-07T07:29:45.099Z,1008.96
2019-05-07T07:34:44.996Z,1008.94
2019-05-07T07:39:44.789Z,1008.83
2019-05-07T07:44:44.302Z,1008.81
2019-05-07T07:49:43.834Z,1008.80
2019-05-07T07:54:44.457Z,1008.79
2019-05-07T07:59:43.762Z,1008.68
2019-05-07T08:04:43.797Z,1008.64
2019-05-07T08:09:45.220Z,1008.62
2019-05-07T08:14:45.225Z,1008.57
2019-05-07T08:19:46.055Z,1008.66
2019-05-07T08:24:46.095Z,1008.63
2019-05-07T08:29:45.990Z,1008.54
2019-05-07T08:34:44.945Z,1008.50
2019-05-07T08:39:46.520Z,1008.46
2019-05-07T08:44:45.920Z,1008.51
2019-05-07T08:49:45.232Z,1008.54
2019-05-07T08:54:44.913Z,1008.46
2019-05-07T08:59:57.559Z,1008.41
2019-05-07T09:04:44.025Z,1008.45
2019-05-07T09:09:43.924Z,1008.42
2019-05-07T09:14:43.900Z,1008.46
2019-05-07T09:19:50.638Z,1008.48
2019-05-07T09:24:43.214Z,1008.42
2019-05-07T09:29:42.692Z,1008.35
2019-05-07T09:34:43.140Z,1008.35
2019-05-07T09:39:43.183Z,1008.32
2019-05-07T09:44:42.479Z,1008.18
2019-05-07T09:49:42.011Z,1008.27
2019-05-07T09:54:42.766Z,1008.17
2019-05-07T09:59:42.596Z,1008.12
2019-05-07T10:04:41.770Z,1008.12
2019-05-07T10:09:42.584Z,1008.11
2019-05-07T10:14:39.223Z,1008.02
2019-05-07T10:19:38.979Z,1008.06
2019-05-07T10:24:38.962Z,1007.88
2019-05-07T10:29:39.306Z,1007.95
2019-05-07T10:34:38.937Z,1007.89
2019-05-07T10:39:38.027Z,1007.92
2019-05-07T10:44:38.138Z,1007.90
2019-05-07T10:49:37.066Z,1007.85
2019-05-07T10:59:36.959Z,1007.76
2019-05-07T11:04:42.073Z,1007.76
2019-05-07T11:09:35.951Z,1007.68
2019-05-07T11:14:34.872Z,1007.62
2019-05-07T11:19:33.923Z,1007.66
2019-05-07T11:24:33.937Z,1007.60
2019-05-07T11:29:36.372Z,1007.49
2019-05-07T11:34:32.803Z,1007.55
2019-05-07T11:39:33.233Z,1007.50
2019-05-07T11:44:32.312Z,1007.43
2019-05-07T11:49:32.987Z,1007.45
2019-05-07T11:54:33.288Z,1007.54
2019-05-07T11:59:32.734Z,1007.39
2019-05-07T12:04:32.057Z,1007.38
2019-05-07T12:09:33.255Z,1007.30
2019-05-07T12:14:32.580Z,1007.28
2019-05-07T12:19:28.919Z,1007.27
2019-05-07T12:24:32.695Z,1007.24
2019-05-07T12:29:29.334Z,1007.20
2019-05-07T12:34:31.862Z,1007.15
2019-05-07T12:39:31.911Z,1007.08
2019-05-07T12:44:32.238Z,1006.99
2019-05-07T12:49:32.520Z,1006.89
2019-05-07T12:54:33.639Z,1006.81
2019-05-07T12:59:32.238Z,1006.74
2019-05-07T13:04:32.506Z,1006.57
2019-05-07T13:09:32.385Z,1006.58
2019-05-07T13:14:29.135Z,1006.57
2019-05-07T13:19:28.899Z,1006.44
2019-05-07T13:24:29.255Z,1006.43
2019-05-07T13:29:28.099Z,1006.49
2019-05-07T13:34:27.050Z,1006.45
2019-05-07T13:39:26.902Z,1006.34
2019-05-07T13:44:26.090Z,1006.23
2019-05-07T13:49:26.117Z,1006.14
2019-05-07T13:54:26.018Z,1006.10
2019-05-07T13:59:25.952Z,1006.09
2019-05-07T14:04:25.250Z,1005.93
2019-05-07T14:09:25.892Z,1005.87
2019-05-07T14:14:24.906Z,1005.85
2019-05-07T14:19:24.919Z,1005.84
2019-05-07T14:24:26.098Z,1005.75
2019-05-07T14:29:25.069Z,1005.75
2019-05-07T14:34:24.938Z,1005.73
2019-05-07T14:39:24.936Z,1005.61
2019-05-07T14:44:23.921Z,1005.68
2019-05-07T14:49:23.951Z,1005.58
2019-05-07T14:54:22.975Z,1005.57
2019-05-07T14:59:22.035Z,1005.57
2019-05-07T15:04:22.228Z,1005.51
2019-05-07T15:09:22.465Z,1005.39
2019-05-07T15:14:22.141Z,1005.37
2019-05-07T15:19:22.245Z,1005.37
2019-05-07T15:24:22.074Z,1005.25
2019-05-07T15:29:19.916Z,1005.32
2019-05-07T15:34:22.043Z,1005.34
2019-05-07T15:39:22.135Z,1005.21
2019-05-07T15:44:19.954Z,1005.17
2019-05-07T15:49:18.942Z,1005.00
2019-05-07T15:54:18.975Z,1005.07
2019-05-07T15:59:18.986Z,1005.09
2019-05-07T16:04:22.287Z,1004.98
2019-05-07T16:09:18.051Z,1004.93
2019-05-07T16:14:17.977Z,1004.90
2019-05-07T16:19:18.943Z,1004.80
2019-05-07T16:24:18.927Z,1004.78
2019-05-07T16:29:17.989Z,1004.70
2019-05-07T16:34:16.963Z,1004.70
2019-05-07T16:39:17.301Z,1004.64
2019-05-07T16:44:17.148Z,1004.53
2019-05-07T16:49:17.069Z,1004.48
2019-05-07T16:54:16.325Z,1004.43
2019-05-07T16:59:16.067Z,1004.43
2019-05-07T17:04:16.999Z,1004.46
2019-05-07T17:09:16.883Z,1004.32
2019-05-07T17:14:16.087Z,1004.33
2019-05-07T17:19:15.090Z,1004.38
2019-05-07T17:24:14.958Z,1004.32
2019-05-07T17:29:14.958Z,1004.24
2019-05-07T17:34:15.983Z,1004.24
2019-05-07T17:39:15.519Z,1004.29
2019-05-07T17:44:15.994Z,1004.28
2019-05-07T17:49:15.940Z,1004.38
2019-05-07T17:54:16.160Z,1004.30
2019-05-07T17:59:14.869Z,1004.24
2019-05-07T18:04:13.942Z,1004.15
2019-05-07T18:09:13.910Z,1004.20
2019-05-07T18:14:13.350Z,1004.24
2019-05-07T18:19:12.908Z,1004.13
2019-05-07T18:24:16.415Z,1004.14
2019-05-07T18:29:12.038Z,1004.15
2019-05-07T18:34:12.866Z,1004.07
2019-05-07T18:39:12.132Z,1004.09
2019-05-07T18:44:13.605Z,1004.03
2019-05-07T18:49:12.750Z,1004.07
2019-05-07T18:54:20.209Z,1004.00
2019-05-07T18:59:10.923Z,1004.03
2019-05-07T19:04:12.939Z,1003.97
2019-05-07T19:09:11.423Z,1003.96
2019-05-07T19:14:13.218Z,1003.97
2019-05-07T19:19:12.313Z,1003.98
2019-05-07T19:24:09.943Z,1004.06
2019-05-07T19:29:11.912Z,1004.04
2019-05-07T19:34:12.177Z,1004.02
2019-05-07T19:39:08.980Z,1004.07
2019-05-07T19:44:09.038Z,1004.05
2019-05-07T19:49:08.513Z,1004.15
2019-05-07T19:54:08.114Z,1004.03
2019-05-07T19:59:07.519Z,1003.96
2019-05-07T20:04:06.989Z,1004.00
2019-05-07T20:09:12.046Z,1003.91
2019-05-07T20:14:06.971Z,1003.88
2019-05-07T20:19:07.111Z,1004.00
2019-05-07T20:24:06.044Z,1003.96
2019-05-07T20:29:05.997Z,1003.85
2019-05-07T20:34:05.932Z,1003.86
2019-05-07T20:39:05.253Z,1003.76
2019-05-07T20:44:05.547Z,1003.62
2019-05-07T20:49:04.472Z,1003.51
2019-05-07T20:54:05.328Z,1003.40
2019-05-07T20:59:04.920Z,1003.35
2019-05-07T21:04:04.947Z,1003.21
2019-05-07T21:09:03.937Z,1003.26
2019-05-07T21:14:03.328Z,1003.25
2019-05-07T21:19:02.933Z,1003.11
2019-05-07T21:24:02.218Z,1003.10
2019-05-07T21:29:03.207Z,1003.07
2019-05-07T21:34:03.053Z,1002.96
2019-05-07T21:39:02.945Z,1003.04
2019-05-07T21:44:02.024Z,1003.01
2019-05-07T21:49:02.644Z,1002.93
2019-05-07T21:54:00.957Z,1002.87
2019-05-07T21:58:59.935Z,1002.77
2019-05-07T22:04:01.892Z,1002.66
2019-05-07T22:08:58.982Z,1002.61
2019-05-07T22:13:57.905Z,1002.58
2019-05-07T22:18:57.006Z,1002.61
2019-05-07T22:23:56.932Z,1002.59
2019-05-07T22:28:56.989Z,1002.64
2019-05-07T22:33:59.294Z,1002.54
2019-05-07T22:38:57.928Z,1002.36
2019-05-07T22:43:59.134Z,1002.15
2019-05-07T22:48:58.916Z,1002.03
2019-05-07T22:53:59.088Z,1002.03
2019-05-07T22:58:59.332Z,1001.92
2019-05-07T23:03:58.997Z,1001.93
2019-05-07T23:08:58.906Z,1001.82
2019-05-07T23:13:58.108Z,1001.75
2019-05-07T23:18:57.215Z,1001.64
2019-05-07T23:23:56.893Z,1001.62
2019-05-07T23:33:56.999Z,1001.45
2019-05-07T23:38:56.955Z,1001.31
2019-05-07T23:43:57.191Z,1001.28
2019-05-07T23:48:56.925Z,1001.17
2019-05-07T23:53:58.020Z,1001.11
2019-05-07T23:58:57.923Z,1001.03
